sensor_id;sensor_type;location;lat;lon;timestamp;pressure;altitude;pressure_sealevel;temperature;humidity
39823;BME280;25499;53.958;10.970;2023-04-08T06:22:41;102480.63;;;4.34;100.00
39823;BME280;25499;53.958;10.970;2023-04-08T06:25:07;102481.13;;;4.26;100.00
39823;BME280;25499;53.958;10.970;2023-04-08T06:27:32;102479.25;;;4.40;100.00
39823;BME280;25499;53.958;10.970;2023-04-08T06:29:58;102474.13;;;4.24;100.00
39823;BME280;25499;53.958;10.970;2023-04-08T06:32:23;102479.28;;;4.24;100.00
39823;BME280;25499;53.958;10.970;2023-04-08T06:34:49;102484.59;;;4.27;100.00
39823;BME280;25499;53.958;10.970;2023-04-08T06:37:14;102489.47;;;4.39;100.00
39823;BME280;25499;53.958;10.970;2023-04-08T06:39:39;102482.81;;;4.26;100.00
39823;BME280;25499;53.958;10.970;2023-04-08T06:42:05;102480.78;;;4.37;100.00
39823;BME280;25499;53.958;10.970;2023-04-08T06:44:32;102480.69;;;4.52;100.00
39823;BME280;25499;53.958;10.970;2023-04-08T06:46:57;102491.25;;;4.40;100.00
39823;BME280;25499;53.958;10.970;2023-04-08T06:49:22;102488.88;;;4.44;100.00
39823;BME280;25499;53.958;10.970;2023-04-08T06:51:48;102486.44;;;4.64;100.00
39823;BME280;25499;53.958;10.970;2023-04-08T06:54:14;102496.16;;;4.70;100.00
39823;BME280;25499;53.958;10.970;2023-04-08T06:56:39;102497.19;;;4.73;100.00
39823;BME280;25499;53.958;10.970;2023-04-08T06:59:05;102488.41;;;4.70;100.00
39823;BME280;25499;53.958;10.970;2023-04-08T07:01:30;102499.41;;;4.65;100.00
39823;BME280;25499;53.958;10.970;2023-04-08T07:03:58;102491.91;;;4.70;100.00
39823;BME280;25499;53.958;10.970;2023-04-08T07:06:24;102489.97;;;4.66;100.00
39823;BME280;25499;53.958;10.970;2023-04-08T07:08:49;102493.41;;;4.66;100.00
39823;BME280;25499;53.958;10.970;2023-04-08T07:11:15;102504.34;;;4.61;100.00
39823;BME280;25499;53.958;10.970;2023-04-08T07:13:41;102497.41;;;4.60;100.00
39823;BME280;25499;53.958;10.970;2023-04-08T07:16:07;102501.31;;;4.52;100.00
39823;BME280;25499;53.958;10.970;2023-04-08T07:18:33;102506.88;;;4.43;100.00
39823;BME280;25499;53.958;10.970;2023-04-08T07:20:58;102512.50;;;4.52;100.00
39823;BME280;25499;53.958;10.970;2023-04-08T07:23:25;102518.09;;;4.61;100.00
39823;BME280;25499;53.958;10.970;2023-04-08T07:25:51;102518.53;;;4.53;100.00
39823;BME280;25499;53.958;10.970;2023-04-08T07:28:16;102515.97;;;4.53;100.00
39823;BME280;25499;53.958;10.970;2023-04-08T07:30:42;102513.00;;;4.45;100.00
39823;BME280;25499;53.958;10.970;2023-04-08T07:33:07;102524.28;;;4.47;100.00
39823;BME280;25499;53.958;10.970;2023-04-08T07:35:33;102520.69;;;4.27;100.00
39823;BME280;25499;53.958;10.970;2023-04-08T07:37:58;102525.56;;;4.55;100.00
39823;BME280;25499;53.958;10.970;2023-04-08T07:40:24;102526.19;;;4.51;100.00
39823;BME280;25499;53.958;10.970;2023-04-08T07:42:49;102520.16;;;4.51;100.00
39823;BME280;25499;53.958;10.970;2023-04-08T07:45:15;102525.00;;;4.44;100.00
39823;BME280;25499;53.958;10.970;2023-04-08T07:47:40;102525.47;;;4.54;100.00
39823;BME280;25499;53.958;10.970;2023-04-08T07:50:07;102530.31;;;4.47;100.00
39823;BME280;25499;53.958;10.970;2023-04-08T07:52:33;102536.50;;;4.51;100.00
39823;BME280;25499;53.958;10.970;2023-04-08T07:54:58;102534.00;;;4.53;100.00
39823;BME280;25499;53.958;10.970;2023-04-08T07:57:25;102537.09;;;4.45;100.00
39823;BME280;25499;53.958;10.970;2023-04-08T07:59:51;102540.44;;;4.61;100.00
39823;BME280;25499;53.958;10.970;2023-04-08T08:02:16;102537.88;;;4.61;100.00
39823;BME280;25499;53.958;10.970;2023-04-08T08:04:42;102539.38;;;4.74;100.00
39823;BME280;25499;53.958;10.970;2023-04-08T08:07:08;102538.94;;;4.82;100.00
39823;BME280;25499;53.958;10.970;2023-04-08T08:09:33;102534.50;;;4.62;100.00
39823;BME280;25499;53.958;10.970;2023-04-08T08:11:58;102551.38;;;4.73;100.00
39823;BME280;25499;53.958;10.970;2023-04-08T08:14:24;102549.47;;;4.69;100.00
39823;BME280;25499;53.958;10.970;2023-04-08T08:16:51;102549.41;;;4.85;100.00
39823;BME280;25499;53.958;10.970;2023-04-08T08:19:21;102547.63;;;4.84;100.00
39823;BME280;25499;53.958;10.970;2023-04-08T08:21:48;102554.69;;;4.71;100.00
39823;BME280;25499;53.958;10.970;2023-04-08T08:24:14;102566.50;;;4.83;100.00
39823;BME280;25499;53.958;10.970;2023-04-08T08:26:40;102559.09;;;4.73;100.00
39823;BME280;25499;53.958;10.970;2023-04-08T08:29:06;102560.53;;;4.84;100.00
39823;BME280;25499;53.958;10.970;2023-04-08T08:31:33;102558.19;;;4.89;100.00
39823;BME280;25499;53.958;10.970;2023-04-08T08:33:58;102570.00;;;4.84;100.00
39823;BME280;25499;53.958;10.970;2023-04-08T08:36:24;102566.50;;;4.83;100.00
39823;BME280;25499;53.958;10.970;2023-04-08T08:38:51;102566.50;;;4.83;100.00
39823;BME280;25499;53.958;10.970;2023-04-08T08:41:18;102569.44;;;4.73;100.00
39823;BME280;25499;53.958;10.970;2023-04-08T08:43:45;102567.25;;;4.81;100.00
39823;BME280;25499;53.958;10.970;2023-04-08T08:46:10;102577.16;;;4.73;100.00
39823;BME280;25499;53.958;10.970;2023-04-08T08:48:36;102575.88;;;4.81;100.00
39823;BME280;25499;53.958;10.970;2023-04-08T08:51:08;102587.25;;;5.03;100.00
39823;BME280;25499;53.958;10.970;2023-04-08T08:53:33;102579.84;;;5.09;100.00
39823;BME280;25499;53.958;10.970;2023-04-08T08:55:59;102586.44;;;5.04;100.00
39823;BME280;25499;53.958;10.970;2023-04-08T08:58:28;102586.75;;;5.10;100.00
39823;BME280;25499;53.958;10.970;2023-04-08T09:00:54;102588.13;;;5.03;100.00
39823;BME280;25499;53.958;10.970;2023-04-08T09:03:27;102581.00;;;5.16;100.00
39823;BME280;25499;53.958;10.970;2023-04-08T09:05:55;102580.19;;;5.17;100.00
39823;BME280;25499;53.958;10.970;2023-04-08T09:08:32;102589.50;;;5.13;100.00
39823;BME280;25499;53.958;10.970;2023-04-08T09:11:16;102595.44;;;4.94;100.00
39823;BME280;25499;53.958;10.970;2023-04-08T09:13:43;102597.50;;;5.01;100.00
39823;BME280;25499;53.958;10.970;2023-04-08T09:16:14;102595.31;;;5.09;100.00
39823;BME280;25499;53.958;10.970;2023-04-08T09:18:42;102593.91;;;5.16;100.00
39823;BME280;25499;53.958;10.970;2023-04-08T09:21:09;102602.25;;;5.10;100.00
39823;BME280;25499;53.958;10.970;2023-04-08T09:23:46;102601.50;;;5.31;100.00
39823;BME280;25499;53.958;10.970;2023-04-08T09:26:20;102595.81;;;5.38;100.00
39823;BME280;25499;53.958;10.970;2023-04-08T09:29:04;102593.53;;;5.44;100.00
39823;BME280;25499;53.958;10.970;2023-04-08T09:31:35;102597.53;;;5.55;100.00
39823;BME280;25499;53.958;10.970;2023-04-08T09:34:13;102596.28;;;5.47;100.00
39823;BME280;25499;53.958;10.970;2023-04-08T09:36:47;102602.47;;;5.51;100.00
39823;BME280;25499;53.958;10.970;2023-04-08T09:39:13;102600.28;;;5.40;100.00
39823;BME280;25499;53.958;10.970;2023-04-08T09:41:40;102599.97;;;5.52;100.00
39823;BME280;25499;53.958;10.970;2023-04-08T09:44:09;102608.06;;;5.60;100.00
39823;BME280;25499;53.958;10.970;2023-04-08T09:55:02;102600.50;;;5.45;100.00
39823;BME280;25499;53.958;10.970;2023-04-08T09:57:44;102606.91;;;5.53;100.00
39823;BME280;25499;53.958;10.970;2023-04-08T10:00:15;102600.31;;;5.60;100.00
39823;BME280;25499;53.958;10.970;2023-04-08T10:02:54;102598.34;;;5.54;100.00
39823;BME280;25499;53.958;10.970;2023-04-08T10:05:22;102599.75;;;5.30;100.00
39823;BME280;25499;53.958;10.970;2023-04-08T10:07:49;102604.56;;;5.40;100.00
39823;BME280;25499;53.958;10.970;2023-04-08T10:10:15;102602.69;;;5.55;100.00
39823;BME280;25499;53.958;10.970;2023-04-08T10:12:43;102603.13;;;5.65;100.00
39823;BME280;25499;53.958;10.970;2023-04-08T10:15:29;102608.06;;;5.60;100.00
39823;BME280;25499;53.958;10.970;2023-04-08T10:20:45;102604.91;;;5.66;100.00
39823;BME280;25499;53.958;10.970;2023-04-08T10:23:13;102605.31;;;5.75;100.00
39823;BME280;25499;53.958;10.970;2023-04-08T10:30:39;102589.44;;;5.85;100.00
39823;BME280;25499;53.958;10.970;2023-04-08T10:33:33;102594.31;;;5.97;100.00
39823;BME280;25499;53.958;10.970;2023-04-08T10:38:27;102596.97;;;5.98;100.00
39823;BME280;25499;53.958;10.970;2023-04-08T10:40:53;102598.06;;;6.04;100.00
39823;BME280;25499;53.958;10.970;2023-04-08T10:43:19;102597.41;;;5.90;100.00
39823;BME280;25499;53.958;10.970;2023-04-08T10:45:44;102596.25;;;6.01;100.00
39823;BME280;25499;53.958;10.970;2023-04-08T10:50:39;102593.03;;;6.07;100.00
39823;BME280;25499;53.958;10.970;2023-04-08T10:53:05;102590.75;;;6.13;100.00
39823;BME280;25499;53.958;10.970;2023-04-08T10:55:32;102598.22;;;6.26;100.00
39823;BME280;25499;53.958;10.970;2023-04-08T10:58:07;102599.44;;;6.34;100.00
39823;BME280;25499;53.958;10.970;2023-04-08T11:00:37;102601.84;;;6.30;100.00
39823;BME280;25499;53.958;10.970;2023-04-08T11:03:03;102599.84;;;6.44;100.00
39823;BME280;25499;53.958;10.970;2023-04-08T11:05:30;102602.16;;;6.18;100.00
39823;BME280;25499;53.958;10.970;2023-04-08T11:07:57;102603.91;;;6.19;100.00
39823;BME280;25499;53.958;10.970;2023-04-08T11:10:23;102594.59;;;6.23;100.00
39823;BME280;25499;53.958;10.970;2023-04-08T11:12:49;102599.31;;;6.31;100.00
39823;BME280;25499;53.958;10.970;2023-04-08T11:15:14;102597.94;;;6.20;100.00
39823;BME280;25499;53.958;10.970;2023-04-08T11:17:41;102599.91;;;6.26;100.00
39823;BME280;25499;53.958;10.970;2023-04-08T11:20:08;102615.03;;;6.36;100.00
39823;BME280;25499;53.958;10.970;2023-04-08T11:22:34;102600.94;;;6.29;100.00
39823;BME280;25499;53.958;10.970;2023-04-08T11:25:00;102604.69;;;6.16;100.00
39823;BME280;25499;53.958;10.970;2023-04-08T11:27:26;102601.09;;;6.13;100.00
39823;BME280;25499;53.958;10.970;2023-04-08T11:29:54;102609.78;;;6.15;100.00
39823;BME280;25499;53.958;10.970;2023-04-08T11:32:21;102603.19;;;6.22;100.00
39823;BME280;25499;53.958;10.970;2023-04-08T11:34:47;102610.88;;;6.20;100.00
39823;BME280;25499;53.958;10.970;2023-04-08T11:37:13;102609.03;;;6.18;100.00
39823;BME280;25499;53.958;10.970;2023-04-08T11:39:45;102611.16;;;6.26;100.00
39823;BME280;25499;53.958;10.970;2023-04-08T11:42:27;102617.13;;;6.25;100.00
39823;BME280;25499;53.958;10.970;2023-04-08T11:44:53;102613.84;;;6.29;100.00
39823;BME280;25499;53.958;10.970;2023-04-08T11:47:19;102604.69;;;6.36;100.00
39823;BME280;25499;53.958;10.970;2023-04-08T11:49:45;102611.84;;;6.42;100.00
39823;BME280;25499;53.958;10.970;2023-04-08T11:52:11;102613.66;;;6.44;100.00
39823;BME280;25499;53.958;10.970;2023-04-08T11:54:40;102613.25;;;6.54;100.00
39823;BME280;25499;53.958;10.970;2023-04-08T11:57:07;102611.25;;;6.68;100.00
39823;BME280;25499;53.958;10.970;2023-04-08T11:59:34;102605.97;;;6.65;100.00
39823;BME280;25499;53.958;10.970;2023-04-08T12:02:01;102605.34;;;6.71;100.00
39823;BME280;25499;53.958;10.970;2023-04-08T12:04:29;102607.13;;;6.52;100.00
39823;BME280;25499;53.958;10.970;2023-04-08T12:06:55;102606.38;;;6.35;100.00
39823;BME280;25499;53.958;10.970;2023-04-08T12:09:21;102611.00;;;6.43;100.00
39823;BME280;25499;53.958;10.970;2023-04-08T12:11:49;102617.53;;;6.54;100.00
39823;BME280;25499;53.958;10.970;2023-04-08T12:14:15;102614.59;;;6.46;100.00
39823;BME280;25499;53.958;10.970;2023-04-08T12:16:40;102615.09;;;6.38;100.00
39823;BME280;25499;53.958;10.970;2023-04-08T12:19:06;102624.59;;;6.58;100.00
39823;BME280;25499;53.958;10.970;2023-04-08T12:21:31;102617.94;;;6.63;100.00
39823;BME280;25499;53.958;10.970;2023-04-08T12:23:58;102613.72;;;6.65;100.00
39823;BME280;25499;53.958;10.970;2023-04-08T12:26:24;102610.44;;;6.69;100.00
39823;BME280;25499;53.958;10.970;2023-04-08T12:28:49;102609.50;;;6.67;100.00
39823;BME280;25499;53.958;10.970;2023-04-08T12:31:15;102610.81;;;6.79;100.00
39823;BME280;25499;53.958;10.970;2023-04-08T12:33:40;102607.50;;;6.81;100.00
39823;BME280;25499;53.958;10.970;2023-04-08T12:36:06;102603.19;;;6.82;100.00
39823;BME280;25499;53.958;10.970;2023-04-08T12:38:31;102606.78;;;6.85;100.00
39823;BME280;25499;53.958;10.970;2023-04-08T12:40:58;102611.28;;;6.89;100.00
39823;BME280;25499;53.958;10.970;2023-04-08T12:43:23;102600.81;;;6.86;100.00
39823;BME280;25499;53.958;10.970;2023-04-08T12:45:51;102616.13;;;6.82;100.00
39823;BME280;25499;53.958;10.970;2023-04-08T12:48:16;102608.00;;;6.72;100.00
39823;BME280;25499;53.958;10.970;2023-04-08T12:50:42;102609.81;;;6.75;100.00
39823;BME280;25499;53.958;10.970;2023-04-08T12:53:07;102616.09;;;7.01;100.00
39823;BME280;25499;53.958;10.970;2023-04-08T12:55:33;102609.53;;;7.09;100.00
39823;BME280;25499;53.958;10.970;2023-04-08T12:57:58;102611.38;;;7.33;100.00
39823;BME280;25499;53.958;10.970;2023-04-08T13:00:23;102610.38;;;7.52;100.00
39823;BME280;25499;53.958;10.970;2023-04-08T13:02:50;102605.75;;;7.45;100.00
39823;BME280;25499;53.958;10.970;2023-04-08T13:05:15;102609.00;;;7.39;100.00
39823;BME280;25499;53.958;10.970;2023-04-08T13:07:42;102607.13;;;7.35;100.00
39823;BME280;25499;53.958;10.970;2023-04-08T13:10:08;102596.63;;;7.11;100.00
39823;BME280;25499;53.958;10.970;2023-04-08T13:12:36;102609.28;;;7.03;100.00
39823;BME280;25499;53.958;10.970;2023-04-08T13:15:05;102612.69;;;7.02;100.00
39823;BME280;25499;53.958;10.970;2023-04-08T13:17:31;102612.50;;;6.98;100.00
39823;BME280;25499;53.958;10.970;2023-04-08T13:19:56;102615.63;;;6.90;100.00
39823;BME280;25499;53.958;10.970;2023-04-08T13:22:22;102616.00;;;6.79;100.00
39823;BME280;25499;53.958;10.970;2023-04-08T13:24:47;102614.31;;;6.79;100.00
39823;BME280;25499;53.958;10.970;2023-04-08T13:27:12;102622.22;;;6.82;100.00
39823;BME280;25499;53.958;10.970;2023-04-08T13:29:38;102622.00;;;6.78;100.00
39823;BME280;25499;53.958;10.970;2023-04-08T13:32:03;102620.75;;;6.89;100.00
39823;BME280;25499;53.958;10.970;2023-04-08T13:34:29;102623.66;;;6.76;100.00
39823;BME280;25499;53.958;10.970;2023-04-08T13:36:55;102628.47;;;6.87;100.00
39823;BME280;25499;53.958;10.970;2023-04-08T13:39:21;102620.09;;;6.73;100.00
39823;BME280;25499;53.958;10.970;2023-04-08T13:41:47;102623.69;;;6.97;100.00
39823;BME280;25499;53.958;10.970;2023-04-08T13:44:13;102613.31;;;6.97;100.00
39823;BME280;25499;53.958;10.970;2023-04-08T13:46:39;102613.81;;;6.88;100.00
39823;BME280;25499;53.958;10.970;2023-04-08T13:49:06;102617.03;;;7.03;100.00
39823;BME280;25499;53.958;10.970;2023-04-08T13:51:31;102622.09;;;7.00;100.00
39823;BME280;25499;53.958;10.970;2023-04-08T13:53:57;102612.56;;;6.99;100.00
39823;BME280;25499;53.958;10.970;2023-04-08T13:56:23;102609.78;;;6.95;100.00
39823;BME280;25499;53.958;10.970;2023-04-08T13:58:48;102611.16;;;6.86;100.00
39823;BME280;25499;53.958;10.970;2023-04-08T14:01:14;102609.84;;;6.96;100.00
39823;BME280;25499;53.958;10.970;2023-04-08T14:03:40;102607.75;;;6.87;100.00
39823;BME280;25499;53.958;10.970;2023-04-08T14:06:06;102611.38;;;6.71;100.00
39823;BME280;25499;53.958;10.970;2023-04-08T14:08:32;102615.75;;;6.72;100.00
39823;BME280;25499;53.958;10.970;2023-04-08T14:10:57;102621.81;;;6.94;100.00
39823;BME280;25499;53.958;10.970;2023-04-08T14:13:24;102623.41;;;6.90;100.00
39823;BME280;25499;53.958;10.970;2023-04-08T14:15:49;102615.47;;;6.86;100.00
39823;BME280;25499;53.958;10.970;2023-04-08T14:18:16;102609.59;;;6.90;100.00
39823;BME280;25499;53.958;10.970;2023-04-08T14:20:44;102610.28;;;6.86;100.00
39823;BME280;25499;53.958;10.970;2023-04-08T14:23:09;102621.78;;;6.93;100.00
39823;BME280;25499;53.958;10.970;2023-04-08T14:25:40;102606.72;;;6.84;100.00
39823;BME280;25499;53.958;10.970;2023-04-08T14:28:06;102609.13;;;6.79;100.00
39823;BME280;25499;53.958;10.970;2023-04-08T14:30:31;102617.19;;;7.06;100.00
39823;BME280;25499;53.958;10.970;2023-04-08T14:32:57;102607.41;;;6.99;100.00
39823;BME280;25499;53.958;10.970;2023-04-08T14:35:25;102607.88;;;6.90;100.00
39823;BME280;25499;53.958;10.970;2023-04-08T14:37:50;102606.06;;;6.68;100.00
39823;BME280;25499;53.958;10.970;2023-04-08T14:40:16;102602.53;;;6.66;100.00
39823;BME280;25499;53.958;10.970;2023-04-08T14:42:42;102612.38;;;6.34;100.00
39823;BME280;25499;53.958;10.970;2023-04-08T14:45:09;102613.88;;;6.49;100.00
39823;BME280;25499;53.958;10.970;2023-04-08T14:47:35;102617.00;;;6.42;100.00
39823;BME280;25499;53.958;10.970;2023-04-08T14:50:00;102613.44;;;6.40;100.00
39823;BME280;25499;53.958;10.970;2023-04-08T14:52:26;102612.66;;;6.21;100.00
39823;BME280;25499;53.958;10.970;2023-04-08T14:54:51;102620.00;;;6.31;100.00
39823;BME280;25499;53.958;10.970;2023-04-08T14:57:18;102620.41;;;6.60;100.00
39823;BME280;25499;53.958;10.970;2023-04-08T14:59:44;102618.50;;;6.37;100.00
39823;BME280;25499;53.958;10.970;2023-04-08T15:02:10;102621.22;;;6.40;100.00
39823;BME280;25499;53.958;10.970;2023-04-08T15:04:35;102613.94;;;6.31;100.00
39823;BME280;25499;53.958;10.970;2023-04-08T15:07:01;102620.75;;;6.29;100.00
39823;BME280;25499;53.958;10.970;2023-04-08T15:09:27;102614.00;;;6.13;100.00
39823;BME280;25499;53.958;10.970;2023-04-08T15:11:53;102617.41;;;6.12;100.00
39823;BME280;25499;53.958;10.970;2023-04-08T15:14:18;102623.38;;;6.11;100.00
39823;BME280;25499;53.958;10.970;2023-04-08T15:16:44;102613.16;;;6.14;100.00
39823;BME280;25499;53.958;10.970;2023-04-08T15:19:10;102613.25;;;6.15;100.00
39823;BME280;25499;53.958;10.970;2023-04-08T15:21:37;102620.00;;;6.31;100.00
39823;BME280;25499;53.958;10.970;2023-04-08T15:24:02;102604.53;;;6.13;100.00
39823;BME280;25499;53.958;10.970;2023-04-08T15:26:27;102606.94;;;5.91;100.00
39823;BME280;25499;53.958;10.970;2023-04-08T15:28:54;102614.53;;;6.06;100.00
39823;BME280;25499;53.958;10.970;2023-04-08T15:31:21;102613.13;;;5.94;100.00
39823;BME280;25499;53.958;10.970;2023-04-08T15:33:46;102620.06;;;5.95;100.00
39823;BME280;25499;53.958;10.970;2023-04-08T15:36:12;102620.78;;;6.11;100.00
39823;BME280;25499;53.958;10.970;2023-04-08T15:38:43;102604.47;;;5.94;100.00
39823;BME280;25499;53.958;10.970;2023-04-08T15:41:17;102617.72;;;5.82;100.00
39823;BME280;25499;53.958;10.970;2023-04-08T15:43:43;102616.03;;;5.83;100.00
39823;BME280;25499;53.958;10.970;2023-04-08T15:46:09;102617.84;;;5.85;100.00
39823;BME280;25499;53.958;10.970;2023-04-08T15:48:35;102621.66;;;5.74;100.00
39823;BME280;25499;53.958;10.970;2023-04-08T15:51:06;102614.63;;;5.89;100.00
39823;BME280;25499;53.958;10.970;2023-04-08T15:53:41;102626.78;;;6.10;100.00
39823;BME280;25499;53.958;10.970;2023-04-08T15:56:18;102624.34;;;6.13;100.00
39823;BME280;25499;53.958;10.970;2023-04-08T15:58:44;102625.97;;;6.11;100.00
39823;BME280;25499;53.958;10.970;2023-04-08T16:01:10;102631.28;;;6.14;100.00
39823;BME280;25499;53.958;10.970;2023-04-08T16:03:36;102624.06;;;6.07;100.00
39823;BME280;25499;53.958;10.970;2023-04-08T16:06:02;102627.75;;;6.12;100.00
39823;BME280;25499;53.958;10.970;2023-04-08T16:08:27;102630.63;;;6.18;100.00
39823;BME280;25499;53.958;10.970;2023-04-08T16:11:01;102623.50;;;6.14;100.00
39823;BME280;25499;53.958;10.970;2023-04-08T16:13:27;102617.00;;;6.03;100.00
39823;BME280;25499;53.958;10.970;2023-04-08T16:15:55;102638.00;;;6.10;100.00
39823;BME280;25499;53.958;10.970;2023-04-08T16:18:20;102631.66;;;6.04;100.00
39823;BME280;25499;53.958;10.970;2023-04-08T16:20:46;102631.81;;;6.07;100.00
39823;BME280;25499;53.958;10.970;2023-04-08T16:23:11;102636.91;;;6.05;100.00
39823;BME280;25499;53.958;10.970;2023-04-08T16:25:40;102632.91;;;6.12;100.00
39823;BME280;25499;53.958;10.970;2023-04-08T16:28:06;102629.63;;;6.16;100.00
39823;BME280;25499;53.958;10.970;2023-04-08T16:30:32;102630.56;;;5.98;100.00
39823;BME280;25499;53.958;10.970;2023-04-08T16:32:57;102636.25;;;6.09;100.00
39823;BME280;25499;53.958;10.970;2023-04-08T16:35:24;102640.13;;;6.00;100.00
39823;BME280;25499;53.958;10.970;2023-04-08T16:37:49;102644.31;;;5.79;100.00
39823;BME280;25499;53.958;10.970;2023-04-08T16:40:15;102645.78;;;5.74;100.00
39823;BME280;25499;53.958;10.970;2023-04-08T16:42:41;102642.41;;;5.75;100.00
39823;BME280;25499;53.958;10.970;2023-04-08T16:45:07;102651.34;;;5.64;100.00
39823;BME280;25499;53.958;10.970;2023-04-08T16:47:32;102645.06;;;5.59;100.00
39823;BME280;25499;53.958;10.970;2023-04-08T16:49:58;102650.84;;;5.53;100.00
39823;BME280;25499;53.958;10.970;2023-04-08T16:52:23;102657.16;;;5.42;100.00
39823;BME280;25499;53.958;10.970;2023-04-08T16:54:49;102657.00;;;5.39;100.00
39823;BME280;25499;53.958;10.970;2023-04-08T16:57:15;102653.63;;;5.40;100.00
39823;BME280;25499;53.958;10.970;2023-04-08T16:59:41;102661.47;;;5.41;100.00
39823;BME280;25499;53.958;10.970;2023-04-08T17:02:06;102659.44;;;5.36;100.00
39823;BME280;25499;53.958;10.970;2023-04-08T17:04:32;102656.13;;;5.38;100.00
39823;BME280;25499;53.958;10.970;2023-04-08T17:06:57;102662.34;;;5.42;100.00
39823;BME280;25499;53.958;10.970;2023-04-08T17:09:23;102658.31;;;5.31;100.00
39823;BME280;25499;53.958;10.970;2023-04-08T17:11:48;102659.44;;;5.18;100.00
39823;BME280;25499;53.958;10.970;2023-04-08T17:14:14;102664.25;;;5.28;100.00
39823;BME280;25499;53.958;10.970;2023-04-08T17:16:39;102664.50;;;5.16;100.00
39823;BME280;25499;53.958;10.970;2023-04-08T17:19:06;102661.44;;;5.07;100.00
39823;BME280;25499;53.958;10.970;2023-04-08T17:21:31;102669.44;;;5.12;100.00
39823;BME280;25499;53.958;10.970;2023-04-08T17:23:57;102666.84;;;5.12;100.00
39823;BME280;25499;53.958;10.970;2023-04-08T17:26:22;102670.66;;;5.02;100.00
39823;BME280;25499;53.958;10.970;2023-04-08T17:28:48;102669.09;;;5.22;100.00
39823;BME280;25499;53.958;10.970;2023-04-08T17:31:14;102671.59;;;5.20;100.00
39823;BME280;25499;53.958;10.970;2023-04-08T17:33:39;102675.00;;;5.19;100.00
39823;BME280;25499;53.958;10.970;2023-04-08T17:36:05;102670.59;;;5.00;100.00
39823;BME280;25499;53.958;10.970;2023-04-08T17:38:31;102669.03;;;5.04;100.00
39823;BME280;25499;53.958;10.970;2023-04-08T17:40:57;102673.91;;;4.98;100.00
39823;BME280;25499;53.958;10.970;2023-04-08T17:43:23;102681.66;;;4.98;100.00
39823;BME280;25499;53.958;10.970;2023-04-08T17:45:49;102681.50;;;4.95;100.00
39823;BME280;25499;53.958;10.970;2023-04-08T17:48:15;102688.09;;;4.90;100.00
39823;BME280;25499;53.958;10.970;2023-04-08T17:50:41;102688.50;;;4.97;100.00
39823;BME280;25499;53.958;10.970;2023-04-08T17:53:06;102687.78;;;5.00;100.00
39823;BME280;25499;53.958;10.970;2023-04-08T17:55:32;102693.88;;;5.02;100.00
39823;BME280;25499;53.958;10.970;2023-04-08T17:57:57;102693.88;;;5.02;100.00
39823;BME280;25499;53.958;10.970;2023-04-08T18:00:22;102693.41;;;5.09;100.00
39823;BME280;25499;53.958;10.970;2023-04-08T18:02:49;102698.25;;;5.03;100.00
39823;BME280;25499;53.958;10.970;2023-04-08T18:05:14;102699.06;;;5.02;100.00
39823;BME280;25499;53.958;10.970;2023-04-08T18:07:42;102691.63;;;5.08;100.00
39823;BME280;25499;53.958;10.970;2023-04-08T18:10:07;102696.00;;;5.09;100.00
39823;BME280;25499;53.958;10.970;2023-04-08T18:12:33;102689.41;;;4.98;100.00
39823;BME280;25499;53.958;10.970;2023-04-08T18:15:00;102690.34;;;5.00;100.00
39823;BME280;25499;53.958;10.970;2023-04-08T18:17:25;102697.44;;;5.04;100.00
39823;BME280;25499;53.958;10.970;2023-04-08T18:19:51;102695.00;;;5.07;100.00
39823;BME280;25499;53.958;10.970;2023-04-08T18:22:17;102701.22;;;5.11;100.00
39823;BME280;25499;53.958;10.970;2023-04-08T18:24:44;102701.97;;;5.08;100.00
39823;BME280;25499;53.958;10.970;2023-04-08T18:27:09;102694.13;;;5.07;100.00
39823;BME280;25499;53.958;10.970;2023-04-08T18:29:35;102694.56;;;4.98;100.00
39823;BME280;25499;53.958;10.970;2023-04-08T18:32:00;102707.13;;;5.08;100.00
39823;BME280;25499;53.958;10.970;2023-04-08T18:34:26;102703.78;;;5.11;100.00
39823;BME280;25499;53.958;10.970;2023-04-08T18:36:51;102702.19;;;5.13;100.00
39823;BME280;25499;53.958;10.970;2023-04-08T18:39:17;102704.03;;;5.15;100.00
39823;BME280;25499;53.958;10.970;2023-04-08T18:41:42;102699.53;;;5.11;100.00
39823;BME280;25499;53.958;10.970;2023-04-08T18:44:08;102704.63;;;5.10;100.00
39823;BME280;25499;53.958;10.970;2023-04-08T18:46:34;102700.19;;;5.07;100.00
39823;BME280;25499;53.958;10.970;2023-04-08T18:48:59;102701.56;;;5.00;100.00
39823;BME280;25499;53.958;10.970;2023-04-08T18:51:25;102711.09;;;5.01;100.00
39823;BME280;25499;53.958;10.970;2023-04-08T18:53:51;102711.53;;;5.11;100.00
39823;BME280;25499;53.958;10.970;2023-04-08T18:56:18;102710.66;;;5.10;100.00
39823;BME280;25499;53.958;10.970;2023-04-08T18:58:44;102718.16;;;5.05;100.00
39823;BME280;25499;53.958;10.970;2023-04-08T19:01:12;102726.66;;;5.03;100.00
39823;BME280;25499;53.958;10.970;2023-04-08T19:03:38;102728.41;;;5.04;100.00
39823;BME280;25499;53.958;10.970;2023-04-08T19:06:08;102730.28;;;5.07;100.00
39823;BME280;25499;53.958;10.970;2023-04-08T19:08:34;102730.28;;;5.07;100.00
39823;BME280;25499;53.958;10.970;2023-04-08T19:10:59;102738.03;;;5.07;100.00
39823;BME280;25499;53.958;10.970;2023-04-08T19:13:25;102739.47;;;5.01;100.00
39823;BME280;25499;53.958;10.970;2023-04-08T19:15:51;102736.09;;;5.02;100.00
39823;BME280;25499;53.958;10.970;2023-04-08T19:18:16;102737.84;;;5.03;100.00
39823;BME280;25499;53.958;10.970;2023-04-08T19:20:42;102734.97;;;4.97;100.00